sensor_id;sensor_type;location;lat;lon;timestamp;temperature;humidity
64858;SHT30;51335;51.148;6.950;2022-08-25T00:00:12;23.94;51.41
64858;SHT30;51335;51.148;6.950;2022-08-25T00:00:43;23.87;51.36
64858;SHT30;51335;51.148;6.950;2022-08-25T00:01:26;23.81;51.46
64858;SHT30;51335;51.148;6.950;2022-08-25T00:01:59;23.75;51.78
64858;SHT30;51335;51.148;6.950;2022-08-25T00:02:29;23.73;51.97
64858;SHT30;51335;51.148;6.950;2022-08-25T00:03:00;23.69;52.07
64858;SHT30;51335;51.148;6.950;2022-08-25T00:03:30;23.62;52.08
64858;SHT30;51335;51.148;6.950;2022-08-25T00:04:02;23.57;52.07
64858;SHT30;51335;51.148;6.950;2022-08-25T00:04:33;23.53;52.08
64858;SHT30;51335;51.148;6.950;2022-08-25T00:05:04;23.50;52.10
64858;SHT30;51335;51.148;6.950;2022-08-25T00:05:34;23.49;52.17
64858;SHT30;51335;51.148;6.950;2022-08-25T00:06:05;23.45;52.22
64858;SHT30;51335;51.148;6.950;2022-08-25T00:06:37;23.39;52.32
64858;SHT30;51335;51.148;6.950;2022-08-25T00:07:07;23.38;52.36
64858;SHT30;51335;51.148;6.950;2022-08-25T00:07:38;23.35;52.45
64858;SHT30;51335;51.148;6.950;2022-08-25T00:08:08;23.32;52.54
64858;SHT30;51335;51.148;6.950;2022-08-25T00:08:39;23.29;52.67
64858;SHT30;51335;51.148;6.950;2022-08-25T00:09:13;23.30;52.77
64858;SHT30;51335;51.148;6.950;2022-08-25T00:09:44;23.26;52.77
64858;SHT30;51335;51.148;6.950;2022-08-25T00:10:14;23.23;52.80
64858;SHT30;51335;51.148;6.950;2022-08-25T00:10:44;23.22;52.87
64858;SHT30;51335;51.148;6.950;2022-08-25T00:11:21;23.22;52.92
64858;SHT30;51335;51.148;6.950;2022-08-25T00:11:52;23.15;53.11
64858;SHT30;51335;51.148;6.950;2022-08-25T00:12:22;23.16;53.15
64858;SHT30;51335;51.148;6.950;2022-08-25T00:12:53;23.12;53.19
64858;SHT30;51335;51.148;6.950;2022-08-25T00:13:23;23.09;53.23
64858;SHT30;51335;51.148;6.950;2022-08-25T00:13:56;23.06;53.33
64858;SHT30;51335;51.148;6.950;2022-08-25T00:14:33;23.02;53.41
64858;SHT30;51335;51.148;6.950;2022-08-25T00:15:04;23.01;53.54
64858;SHT30;51335;51.148;6.950;2022-08-25T00:15:35;22.98;53.52
64858;SHT30;51335;51.148;6.950;2022-08-25T00:16:05;22.97;53.61
64858;SHT30;51335;51.148;6.950;2022-08-25T00:16:36;22.95;53.70
64858;SHT30;51335;51.148;6.950;2022-08-25T00:17:06;22.91;53.75
64858;SHT30;51335;51.148;6.950;2022-08-25T00:17:36;22.90;53.76
64858;SHT30;51335;51.148;6.950;2022-08-25T00:18:07;22.85;53.80
64858;SHT30;51335;51.148;6.950;2022-08-25T00:18:38;22.84;53.97
64858;SHT30;51335;51.148;6.950;2022-08-25T00:19:13;22.83;54.13
64858;SHT30;51335;51.148;6.950;2022-08-25T00:19:43;22.87;54.28
64858;SHT30;51335;51.148;6.950;2022-08-25T00:20:14;22.85;54.22
64858;SHT30;51335;51.148;6.950;2022-08-25T00:20:46;22.79;54.24
64858;SHT30;51335;51.148;6.950;2022-08-25T00:21:16;22.77;54.31
64858;SHT30;51335;51.148;6.950;2022-08-25T00:21:47;22.72;54.39
64858;SHT30;51335;51.148;6.950;2022-08-25T00:22:17;22.71;54.47
64858;SHT30;51335;51.148;6.950;2022-08-25T00:22:47;22.69;54.51
64858;SHT30;51335;51.148;6.950;2022-08-25T00:23:18;22.68;54.52
64858;SHT30;51335;51.148;6.950;2022-08-25T00:23:49;22.65;54.63
64858;SHT30;51335;51.148;6.950;2022-08-25T00:24:20;22.60;54.61
64858;SHT30;51335;51.148;6.950;2022-08-25T00:24:51;22.61;54.60
64858;SHT30;51335;51.148;6.950;2022-08-25T00:25:22;22.57;54.66
64858;SHT30;51335;51.148;6.950;2022-08-25T00:25:52;22.57;54.68
64858;SHT30;51335;51.148;6.950;2022-08-25T00:26:23;22.51;54.79
64858;SHT30;51335;51.148;6.950;2022-08-25T00:26:55;22.47;54.91
64858;SHT30;51335;51.148;6.950;2022-08-25T00:27:26;22.47;55.04
64858;SHT30;51335;51.148;6.950;2022-08-25T00:27:57;22.41;55.14
64858;SHT30;51335;51.148;6.950;2022-08-25T00:28:27;22.44;55.24
64858;SHT30;51335;51.148;6.950;2022-08-25T00:28:57;22.41;55.41
64858;SHT30;51335;51.148;6.950;2022-08-25T00:29:29;22.40;55.61
64858;SHT30;51335;51.148;6.950;2022-08-25T00:29:59;22.37;55.68
64858;SHT30;51335;51.148;6.950;2022-08-25T00:30:30;22.36;55.80
64858;SHT30;51335;51.148;6.950;2022-08-25T00:31:00;22.32;55.86
64858;SHT30;51335;51.148;6.950;2022-08-25T00:31:32;22.29;55.98
64858;SHT30;51335;51.148;6.950;2022-08-25T00:32:03;22.27;55.94
64858;SHT30;51335;51.148;6.950;2022-08-25T00:32:33;22.26;56.01
64858;SHT30;51335;51.148;6.950;2022-08-25T00:33:04;22.21;56.10
64858;SHT30;51335;51.148;6.950;2022-08-25T00:33:34;22.20;56.02
64858;SHT30;51335;51.148;6.950;2022-08-25T00:34:11;22.17;55.94
64858;SHT30;51335;51.148;6.950;2022-08-25T00:34:41;22.16;56.01
64858;SHT30;51335;51.148;6.950;2022-08-25T00:35:11;22.14;56.10
64858;SHT30;51335;51.148;6.950;2022-08-25T00:35:43;22.14;56.16
64858;SHT30;51335;51.148;6.950;2022-08-25T00:36:14;22.10;56.25
64858;SHT30;51335;51.148;6.950;2022-08-25T00:36:45;22.09;56.19
64858;SHT30;51335;51.148;6.950;2022-08-25T00:37:15;22.08;56.24
64858;SHT30;51335;51.148;6.950;2022-08-25T00:37:46;22.05;56.25
64858;SHT30;51335;51.148;6.950;2022-08-25T00:38:16;22.08;56.28
64858;SHT30;51335;51.148;6.950;2022-08-25T00:38:47;22.03;56.23
64858;SHT30;51335;51.148;6.950;2022-08-25T00:39:20;22.03;56.28
64858;SHT30;51335;51.148;6.950;2022-08-25T00:39:51;22.02;56.33
64858;SHT30;51335;51.148;6.950;2022-08-25T00:40:22;22.02;56.39
64858;SHT30;51335;51.148;6.950;2022-08-25T00:40:53;22.02;56.35
64858;SHT30;51335;51.148;6.950;2022-08-25T00:41:24;21.99;56.27
64858;SHT30;51335;51.148;6.950;2022-08-25T00:41:56;21.98;56.30
64858;SHT30;51335;51.148;6.950;2022-08-25T00:42:26;21.96;56.32
64858;SHT30;51335;51.148;6.950;2022-08-25T00:42:57;21.93;56.38
64858;SHT30;51335;51.148;6.950;2022-08-25T00:43:35;21.93;56.38
64858;SHT30;51335;51.148;6.950;2022-08-25T00:44:12;21.91;56.45
64858;SHT30;51335;51.148;6.950;2022-08-25T00:44:42;21.91;56.44
64858;SHT30;51335;51.148;6.950;2022-08-25T00:45:12;21.88;56.63
64858;SHT30;51335;51.148;6.950;2022-08-25T00:45:43;21.85;56.91
64858;SHT30;51335;51.148;6.950;2022-08-25T00:46:17;21.83;57.22
64858;SHT30;51335;51.148;6.950;2022-08-25T00:46:52;21.82;57.19
64858;SHT30;51335;51.148;6.950;2022-08-25T00:47:24;21.79;57.20
64858;SHT30;51335;51.148;6.950;2022-08-25T00:47:54;21.78;57.54
64858;SHT30;51335;51.148;6.950;2022-08-25T00:48:24;21.74;57.76
64858;SHT30;51335;51.148;6.950;2022-08-25T00:49:04;21.74;57.80
64858;SHT30;51335;51.148;6.950;2022-08-25T00:49:39;21.71;57.97
64858;SHT30;51335;51.148;6.950;2022-08-25T00:50:11;21.68;58.01
64858;SHT30;51335;51.148;6.950;2022-08-25T00:50:41;21.69;57.97
64858;SHT30;51335;51.148;6.950;2022-08-25T00:51:13;21.66;58.26
64858;SHT30;51335;51.148;6.950;2022-08-25T00:51:53;21.63;58.35
64858;SHT30;51335;51.148;6.950;2022-08-25T00:52:28;21.62;58.14
64858;SHT30;51335;51.148;6.950;2022-08-25T00:53:02;21.59;58.16
64858;SHT30;51335;51.148;6.950;2022-08-25T00:53:33;21.59;58.38
64858;SHT30;51335;51.148;6.950;2022-08-25T00:54:04;21.57;58.51
64858;SHT30;51335;51.148;6.950;2022-08-25T00:54:40;21.51;58.56
64858;SHT30;51335;51.148;6.950;2022-08-25T00:55:25;21.50;58.66
64858;SHT30;51335;51.148;6.950;2022-08-25T00:55:57;21.45;58.85
64858;SHT30;51335;51.148;6.950;2022-08-25T00:56:28;21.42;58.96
64858;SHT30;51335;51.148;6.950;2022-08-25T00:56:59;21.42;58.94
64858;SHT30;51335;51.148;6.950;2022-08-25T00:57:45;21.37;58.84
64858;SHT30;51335;51.148;6.950;2022-08-25T00:58:23;21.38;59.07
64858;SHT30;51335;51.148;6.950;2022-08-25T00:58:54;21.35;59.32
64858;SHT30;51335;51.148;6.950;2022-08-25T00:59:25;21.35;59.39
64858;SHT30;51335;51.148;6.950;2022-08-25T00:59:56;21.34;59.49
64858;SHT30;51335;51.148;6.950;2022-08-25T01:00:31;21.33;59.64
64858;SHT30;51335;51.148;6.950;2022-08-25T01:01:02;21.30;59.68
64858;SHT30;51335;51.148;6.950;2022-08-25T01:01:33;21.28;59.77
64858;SHT30;51335;51.148;6.950;2022-08-25T01:02:05;21.26;59.92
64858;SHT30;51335;51.148;6.950;2022-08-25T01:02:36;21.27;60.09
64858;SHT30;51335;51.148;6.950;2022-08-25T01:03:07;21.27;59.87
64858;SHT30;51335;51.148;6.950;2022-08-25T01:03:37;21.23;59.83
64858;SHT30;51335;51.148;6.950;2022-08-25T01:04:07;21.21;59.88
64858;SHT30;51335;51.148;6.950;2022-08-25T01:04:38;21.23;59.79
64858;SHT30;51335;51.148;6.950;2022-08-25T01:05:08;21.24;60.09
64858;SHT30;51335;51.148;6.950;2022-08-25T01:05:40;21.27;60.38
64858;SHT30;51335;51.148;6.950;2022-08-25T01:06:12;21.23;60.01
64858;SHT30;51335;51.148;6.950;2022-08-25T01:06:43;21.21;59.68
64858;SHT30;51335;51.148;6.950;2022-08-25T01:07:13;21.21;59.75
64858;SHT30;51335;51.148;6.950;2022-08-25T01:07:45;21.19;60.00
64858;SHT30;51335;51.148;6.950;2022-08-25T01:08:16;21.19;60.15
64858;SHT30;51335;51.148;6.950;2022-08-25T01:08:47;21.19;60.22
64858;SHT30;51335;51.148;6.950;2022-08-25T01:09:18;21.19;60.34
64858;SHT30;51335;51.148;6.950;2022-08-25T01:09:50;21.14;60.44
64858;SHT30;51335;51.148;6.950;2022-08-25T01:10:22;21.13;60.54
64858;SHT30;51335;51.148;6.950;2022-08-25T01:10:53;21.10;60.58
64858;SHT30;51335;51.148;6.950;2022-08-25T01:11:23;21.11;60.84
64858;SHT30;51335;51.148;6.950;2022-08-25T01:11:54;21.11;60.69
64858;SHT30;51335;51.148;6.950;2022-08-25T01:12:24;21.10;60.76
64858;SHT30;51335;51.148;6.950;2022-08-25T01:13:00;21.06;60.86
64858;SHT30;51335;51.148;6.950;2022-08-25T01:13:53;21.00;60.96
64858;SHT30;51335;51.148;6.950;2022-08-25T01:14:25;21.06;61.41
64858;SHT30;51335;51.148;6.950;2022-08-25T01:14:57;21.02;61.47
64858;SHT30;51335;51.148;6.950;2022-08-25T01:15:28;21.00;61.31
64858;SHT30;51335;51.148;6.950;2022-08-25T01:15:59;21.00;61.18
64858;SHT30;51335;51.148;6.950;2022-08-25T01:16:30;20.96;61.18
64858;SHT30;51335;51.148;6.950;2022-08-25T01:17:00;20.93;61.36
64858;SHT30;51335;51.148;6.950;2022-08-25T01:17:44;20.92;61.61
64858;SHT30;51335;51.148;6.950;2022-08-25T01:18:15;20.87;61.54
64858;SHT30;51335;51.148;6.950;2022-08-25T01:19:17;20.83;61.52
64858;SHT30;51335;51.148;6.950;2022-08-25T01:19:48;20.89;61.47
64858;SHT30;51335;51.148;6.950;2022-08-25T01:20:22;20.93;61.49
64858;SHT30;51335;51.148;6.950;2022-08-25T01:20:57;20.90;61.66
64858;SHT30;51335;51.148;6.950;2022-08-25T01:21:29;20.90;61.58
64858;SHT30;51335;51.148;6.950;2022-08-25T01:22:00;20.86;61.60
64858;SHT30;51335;51.148;6.950;2022-08-25T01:22:30;20.87;61.81
64858;SHT30;51335;51.148;6.950;2022-08-25T01:23:01;20.86;61.84
64858;SHT30;51335;51.148;6.950;2022-08-25T01:23:31;20.82;61.57
64858;SHT30;51335;51.148;6.950;2022-08-25T01:24:02;20.82;61.52
64858;SHT30;51335;51.148;6.950;2022-08-25T01:24:56;20.72;61.83
64858;SHT30;51335;51.148;6.950;2022-08-25T01:26:25;20.63;61.99
64858;SHT30;51335;51.148;6.950;2022-08-25T01:26:56;20.61;62.16
64858;SHT30;51335;51.148;6.950;2022-08-25T01:27:26;20.57;62.32
64858;SHT30;51335;51.148;6.950;2022-08-25T01:27:57;20.63;62.64
64858;SHT30;51335;51.148;6.950;2022-08-25T01:28:27;20.63;63.06
64858;SHT30;51335;51.148;6.950;2022-08-25T01:29:00;20.61;62.60
64858;SHT30;51335;51.148;6.950;2022-08-25T01:29:32;20.57;62.35
64858;SHT30;51335;51.148;6.950;2022-08-25T01:30:03;20.55;62.30
64858;SHT30;51335;51.148;6.950;2022-08-25T01:30:34;20.56;62.57
64858;SHT30;51335;51.148;6.950;2022-08-25T01:31:05;20.57;62.89
64858;SHT30;51335;51.148;6.950;2022-08-25T01:31:37;20.52;62.84
64858;SHT30;51335;51.148;6.950;2022-08-25T01:32:10;20.48;62.77
64858;SHT30;51335;51.148;6.950;2022-08-25T01:32:40;20.44;62.64
64858;SHT30;51335;51.148;6.950;2022-08-25T01:33:11;20.44;62.70
64858;SHT30;51335;51.148;6.950;2022-08-25T01:33:41;20.44;63.10
64858;SHT30;51335;51.148;6.950;2022-08-25T01:34:12;20.45;62.96
64858;SHT30;51335;51.148;6.950;2022-08-25T01:34:44;20.38;62.93
64858;SHT30;51335;51.148;6.950;2022-08-25T01:35:14;20.32;62.98
64858;SHT30;51335;51.148;6.950;2022-08-25T01:35:45;20.31;63.02
64858;SHT30;51335;51.148;6.950;2022-08-25T01:36:20;20.28;63.22
64858;SHT30;51335;51.148;6.950;2022-08-25T01:36:51;20.24;63.28
64858;SHT30;51335;51.148;6.950;2022-08-25T01:37:21;20.22;63.52
64858;SHT30;51335;51.148;6.950;2022-08-25T01:37:51;20.21;63.67
64858;SHT30;51335;51.148;6.950;2022-08-25T01:38:22;20.18;63.70
64858;SHT30;51335;51.148;6.950;2022-08-25T01:38:53;20.21;63.75
64858;SHT30;51335;51.148;6.950;2022-08-25T01:39:26;20.22;64.28
64858;SHT30;51335;51.148;6.950;2022-08-25T01:39:56;20.21;64.14
64858;SHT30;51335;51.148;6.950;2022-08-25T01:40:27;20.17;64.14
64858;SHT30;51335;51.148;6.950;2022-08-25T01:40:57;20.14;64.07
64858;SHT30;51335;51.148;6.950;2022-08-25T01:41:39;20.13;63.97
64858;SHT30;51335;51.148;6.950;2022-08-25T01:42:45;20.03;63.88
64858;SHT30;51335;51.148;6.950;2022-08-25T01:43:37;20.03;64.26
64858;SHT30;51335;51.148;6.950;2022-08-25T01:44:07;20.01;64.83
64858;SHT30;51335;51.148;6.950;2022-08-25T01:44:40;19.96;65.11
64858;SHT30;51335;51.148;6.950;2022-08-25T01:45:12;19.94;65.29
64858;SHT30;51335;51.148;6.950;2022-08-25T01:45:45;19.93;65.24
64858;SHT30;51335;51.148;6.950;2022-08-25T01:46:16;19.90;65.19
64858;SHT30;51335;51.148;6.950;2022-08-25T01:46:46;19.87;65.19
64858;SHT30;51335;51.148;6.950;2022-08-25T01:47:17;19.87;65.31
64858;SHT30;51335;51.148;6.950;2022-08-25T01:47:47;19.91;65.51
64858;SHT30;51335;51.148;6.950;2022-08-25T01:48:18;19.91;65.53
64858;SHT30;51335;51.148;6.950;2022-08-25T01:48:48;19.90;65.50
64858;SHT30;51335;51.148;6.950;2022-08-25T01:49:18;19.90;65.75
64858;SHT30;51335;51.148;6.950;2022-08-25T01:49:49;19.93;65.63
64858;SHT30;51335;51.148;6.950;2022-08-25T01:50:19;19.91;65.05
64858;SHT30;51335;51.148;6.950;2022-08-25T01:50:49;19.88;64.84
64858;SHT30;51335;51.148;6.950;2022-08-25T01:51:23;19.84;64.90
64858;SHT30;51335;51.148;6.950;2022-08-25T01:52:45;19.86;65.28
64858;SHT30;51335;51.148;6.950;2022-08-25T01:53:22;19.81;65.30
64858;SHT30;51335;51.148;6.950;2022-08-25T01:53:52;19.76;65.58
64858;SHT30;51335;51.148;6.950;2022-08-25T01:54:23;19.74;65.71
64858;SHT30;51335;51.148;6.950;2022-08-25T01:54:53;19.73;65.81
64858;SHT30;51335;51.148;6.950;2022-08-25T01:55:24;19.73;65.97
64858;SHT30;51335;51.148;6.950;2022-08-25T01:55:55;19.71;66.05
64858;SHT30;51335;51.148;6.950;2022-08-25T01:56:25;19.69;66.05
64858;SHT30;51335;51.148;6.950;2022-08-25T01:56:57;19.69;66.16
64858;SHT30;51335;51.148;6.950;2022-08-25T01:57:29;19.74;66.23
64858;SHT30;51335;51.148;6.950;2022-08-25T01:58:00;19.80;66.07
64858;SHT30;51335;51.148;6.950;2022-08-25T01:58:32;19.81;66.03
64858;SHT30;51335;51.148;6.950;2022-08-25T01:59:04;19.76;66.03
64858;SHT30;51335;51.148;6.950;2022-08-25T01:59:34;19.77;65.98
64858;SHT30;51335;51.148;6.950;2022-08-25T02:00:05;19.74;65.83
64858;SHT30;51335;51.148;6.950;2022-08-25T02:00:36;19.70;65.85
64858;SHT30;51335;51.148;6.950;2022-08-25T02:01:10;19.71;66.00
64858;SHT30;51335;51.148;6.950;2022-08-25T02:01:41;19.73;66.08
64858;SHT30;51335;51.148;6.950;2022-08-25T02:02:11;19.70;66.09
64858;SHT30;51335;51.148;6.950;2022-08-25T02:02:41;19.66;66.11
64858;SHT30;51335;51.148;6.950;2022-08-25T02:03:12;19.67;66.29
64858;SHT30;51335;51.148;6.950;2022-08-25T02:03:44;19.67;66.31
64858;SHT30;51335;51.148;6.950;2022-08-25T02:04:15;19.71;66.18
64858;SHT30;51335;51.148;6.950;2022-08-25T02:04:45;19.74;66.17
64858;SHT30;51335;51.148;6.950;2022-08-25T02:05:15;19.77;66.16
64858;SHT30;51335;51.148;6.950;2022-08-25T02:05:46;19.74;66.24
64858;SHT30;51335;51.148;6.950;2022-08-25T02:06:21;19.73;66.29
64858;SHT30;51335;51.148;6.950;2022-08-25T02:06:52;19.67;66.29
64858;SHT30;51335;51.148;6.950;2022-08-25T02:07:22;19.62;66.36
64858;SHT30;51335;51.148;6.950;2022-08-25T02:07:52;19.62;66.52
64858;SHT30;51335;51.148;6.950;2022-08-25T02:08:23;19.62;66.75
64858;SHT30;51335;51.148;6.950;2022-08-25T02:08:56;19.66;66.84
64858;SHT30;51335;51.148;6.950;2022-08-25T02:09:27;19.66;66.82
64858;SHT30;51335;51.148;6.950;2022-08-25T02:09:57;19.66;66.79
64858;SHT30;51335;51.148;6.950;2022-08-25T02:10:27;19.62;66.74
64858;SHT30;51335;51.148;6.950;2022-08-25T02:10:58;19.57;66.79
64858;SHT30;51335;51.148;6.950;2022-08-25T02:11:28;19.59;67.02
64858;SHT30;51335;51.148;6.950;2022-08-25T02:11:58;19.52;67.17
64858;SHT30;51335;51.148;6.950;2022-08-25T02:12:31;19.49;67.28
64858;SHT30;51335;51.148;6.950;2022-08-25T02:13:01;19.45;67.48
64858;SHT30;51335;51.148;6.950;2022-08-25T02:13:31;19.40;67.67
64858;SHT30;51335;51.148;6.950;2022-08-25T02:14:02;19.39;67.83
64858;SHT30;51335;51.148;6.950;2022-08-25T02:14:33;19.36;67.84
64858;SHT30;51335;51.148;6.950;2022-08-25T02:15:06;19.33;67.86
64858;SHT30;51335;51.148;6.950;2022-08-25T02:15:46;19.30;67.93
64858;SHT30;51335;51.148;6.950;2022-08-25T02:16:27;19.26;68.02
64858;SHT30;51335;51.148;6.950;2022-08-25T02:16:57;19.23;68.10
64858;SHT30;51335;51.148;6.950;2022-08-25T02:17:28;19.23;68.39
64858;SHT30;51335;51.148;6.950;2022-08-25T02:17:59;19.23;68.59
64858;SHT30;51335;51.148;6.950;2022-08-25T02:18:29;19.21;68.69
64858;SHT30;51335;51.148;6.950;2022-08-25T02:19:00;19.19;68.79
64858;SHT30;51335;51.148;6.950;2022-08-25T02:19:31;19.16;69.00
64858;SHT30;51335;51.148;6.950;2022-08-25T02:20:04;19.15;69.25
64858;SHT30;51335;51.148;6.950;2022-08-25T02:20:35;19.14;69.28
64858;SHT30;51335;51.148;6.950;2022-08-25T02:21:06;19.14;69.25
64858;SHT30;51335;51.148;6.950;2022-08-25T02:21:37;19.15;69.30
64858;SHT30;51335;51.148;6.950;2022-08-25T02:22:07;19.15;69.30
64858;SHT30;51335;51.148;6.950;2022-08-25T02:22:37;19.08;69.42
64858;SHT30;51335;51.148;6.950;2022-08-25T02:23:08;19.07;69.46
64858;SHT30;51335;51.148;6.950;2022-08-25T02:23:40;19.08;69.34
64858;SHT30;51335;51.148;6.950;2022-08-25T02:24:10;19.05;69.59
64858;SHT30;51335;51.148;6.950;2022-08-25T02:24:41;19.07;69.76
64858;SHT30;51335;51.148;6.950;2022-08-25T02:25:11;19.04;69.76
64858;SHT30;51335;51.148;6.950;2022-08-25T02:25:42;19.01;69.76
64858;SHT30;51335;51.148;6.950;2022-08-25T02:26:12;18.98;69.79
64858;SHT30;51335;51.148;6.950;2022-08-25T02:26:43;18.98;69.70
64858;SHT30;51335;51.148;6.950;2022-08-25T02:27:13;18.95;69.71
64858;SHT30;51335;51.148;6.950;2022-08-25T02:27:44;18.94;69.73
64858;SHT30;51335;51.148;6.950;2022-08-25T02:28:14;18.91;69.75
64858;SHT30;51335;51.148;6.950;2022-08-25T02:28:46;18.90;69.90
64858;SHT30;51335;51.148;6.950;2022-08-25T02:29:17;18.90;69.99
64858;SHT30;51335;51.148;6.950;2022-08-25T02:29:47;18.85;70.02
64858;SHT30;51335;51.148;6.950;2022-08-25T02:30:17;18.84;70.05
64858;SHT30;51335;51.148;6.950;2022-08-25T02:30:47;18.81;69.95
64858;SHT30;51335;51.148;6.950;2022-08-25T02:31:20;18.83;69.94
64858;SHT30;51335;51.148;6.950;2022-08-25T02:31:51;18.81;70.06
64858;SHT30;51335;51.148;6.950;2022-08-25T02:32:21;18.77;70.35
64858;SHT30;51335;51.148;6.950;2022-08-25T02:32:52;18.77;70.40
64858;SHT30;51335;51.148;6.950;2022-08-25T02:33:22;18.74;70.68
64858;SHT30;51335;51.148;6.950;2022-08-25T02:33:53;18.75;70.81
64858;SHT30;51335;51.148;6.950;2022-08-25T02:34:23;18.71;70.89
64858;SHT30;51335;51.148;6.950;2022-08-25T02:34:54;18.72;70.98
64858;SHT30;51335;51.148;6.950;2022-08-25T02:35:24;18.67;71.02
64858;SHT30;51335;51.148;6.950;2022-08-25T02:35:59;18.67;71.14
64858;SHT30;51335;51.148;6.950;2022-08-25T02:36:30;18.60;71.25
64858;SHT30;51335;51.148;6.950;2022-08-25T02:37:00;18.61;71.28
64858;SHT30;51335;51.148;6.950;2022-08-25T02:37:31;18.70;71.55
64858;SHT30;51335;51.148;6.950;2022-08-25T02:38:02;18.67;71.71
64858;SHT30;51335;51.148;6.950;2022-08-25T02:38:33;18.64;71.81
64858;SHT30;51335;51.148;6.950;2022-08-25T02:39:06;18.68;71.74
64858;SHT30;51335;51.148;6.950;2022-08-25T02:39:37;18.71;71.87
64858;SHT30;51335;51.148;6.950;2022-08-25T02:40:07;18.68;72.10
64858;SHT30;51335;51.148;6.950;2022-08-25T02:40:38;18.63;72.20
64858;SHT30;51335;51.148;6.950;2022-08-25T02:41:20;18.59;72.35
64858;SHT30;51335;51.148;6.950;2022-08-25T02:41:50;18.57;72.40
64858;SHT30;51335;51.148;6.950;2022-08-25T02:42:21;18.57;72.47
64858;SHT30;51335;51.148;6.950;2022-08-25T02:42:51;18.57;72.57
64858;SHT30;51335;51.148;6.950;2022-08-25T02:43:22;18.61;72.53
64858;SHT30;51335;51.148;6.950;2022-08-25T02:43:52;18.61;72.38
64858;SHT30;51335;51.148;6.950;2022-08-25T02:44:22;18.60;72.20
64858;SHT30;51335;51.148;6.950;2022-08-25T02:44:53;18.59;72.11
64858;SHT30;51335;51.148;6.950;2022-08-25T02:45:23;18.54;71.93
64858;SHT30;51335;51.148;6.950;2022-08-25T02:45:53;18.59;71.83
64858;SHT30;51335;51.148;6.950;2022-08-25T02:46:24;18.57;71.78
64858;SHT30;51335;51.148;6.950;2022-08-25T02:46:54;18.59;71.89
64858;SHT30;51335;51.148;6.950;2022-08-25T02:47:24;18.53;71.99
64858;SHT30;51335;51.148;6.950;2022-08-25T02:47:55;18.54;71.97
64858;SHT30;51335;51.148;6.950;2022-08-25T02:48:25;18.50;71.87
64858;SHT30;51335;51.148;6.950;2022-08-25T02:48:56;18.46;71.88
64858;SHT30;51335;51.148;6.950;2022-08-25T02:49:26;18.44;71.89
64858;SHT30;51335;51.148;6.950;2022-08-25T02:49:57;18.43;71.98
64858;SHT30;51335;51.148;6.950;2022-08-25T02:50:27;18.43;71.96
64858;SHT30;51335;51.148;6.950;2022-08-25T02:50:59;18.39;72.14
64858;SHT30;51335;51.148;6.950;2022-08-25T02:51:31;18.43;72.06
64858;SHT30;51335;51.148;6.950;2022-08-25T02:52:02;18.53;71.76
64858;SHT30;51335;51.148;6.950;2022-08-25T02:52:32;18.56;71.41
64858;SHT30;51335;51.148;6.950;2022-08-25T02:53:02;18.54;71.41
64858;SHT30;51335;51.148;6.950;2022-08-25T02:53:33;18.47;71.47
64858;SHT30;51335;51.148;6.950;2022-08-25T02:54:04;18.57;71.27
64858;SHT30;51335;51.148;6.950;2022-08-25T02:54:35;18.54;71.50
64858;SHT30;51335;51.148;6.950;2022-08-25T02:55:08;18.47;71.64
64858;SHT30;51335;51.148;6.950;2022-08-25T02:55:39;18.42;71.72
64858;SHT30;51335;51.148;6.950;2022-08-25T02:56:10;18.43;71.77
64858;SHT30;51335;51.148;6.950;2022-08-25T02:56:41;18.42;71.59
64858;SHT30;51335;51.148;6.950;2022-08-25T02:57:11;18.36;71.61
64858;SHT30;51335;51.148;6.950;2022-08-25T02:57:42;18.42;71.34
64858;SHT30;51335;51.148;6.950;2022-08-25T02:58:13;18.40;71.37
64858;SHT30;51335;51.148;6.950;2022-08-25T02:58:45;18.36;71.52
64858;SHT30;51335;51.148;6.950;2022-08-25T02:59:16;18.34;71.93
64858;SHT30;51335;51.148;6.950;2022-08-25T02:59:46;18.37;71.87
64858;SHT30;51335;51.148;6.950;2022-08-25T03:00:17;18.34;71.98
64858;SHT30;51335;51.148;6.950;2022-08-25T03:00:48;18.32;71.89
64858;SHT30;51335;51.148;6.950;2022-08-25T03:01:19;18.30;72.03
64858;SHT30;51335;51.148;6.950;2022-08-25T03:01:49;18.28;72.07
64858;SHT30;51335;51.148;6.950;2022-08-25T03:02:19;18.28;71.97
64858;SHT30;51335;51.148;6.950;2022-08-25T03:02:50;18.32;72.22
64858;SHT30;51335;51.148;6.950;2022-08-25T03:03:20;18.29;72.21
64858;SHT30;51335;51.148;6.950;2022-08-25T03:03:50;18.26;72.23
64858;SHT30;51335;51.148;6.950;2022-08-25T03:04:21;18.22;72.28
64858;SHT30;51335;51.148;6.950;2022-08-25T03:04:52;18.19;72.36
64858;SHT30;51335;51.148;6.950;2022-08-25T03:05:22;18.19;72.43
64858;SHT30;51335;51.148;6.950;2022-08-25T03:05:53;18.15;72.59
64858;SHT30;51335;51.148;6.950;2022-08-25T03:06:23;18.22;72.44
64858;SHT30;51335;51.148;6.950;2022-08-25T03:06:54;18.23;72.02
64858;SHT30;51335;51.148;6.950;2022-08-25T03:07:24;18.19;72.05
64858;SHT30;51335;51.148;6.950;2022-08-25T03:07:54;18.15;72.16
64858;SHT30;51335;51.148;6.950;2022-08-25T03:08:25;18.13;72.26
64858;SHT30;51335;51.148;6.950;2022-08-25T03:08:56;18.10;72.28
64858;SHT30;51335;51.148;6.950;2022-08-25T03:09:26;18.08;72.39
64858;SHT30;51335;51.148;6.950;2022-08-25T03:09:56;18.06;72.47
64858;SHT30;51335;51.148;6.950;2022-08-25T03:10:26;18.03;72.57
64858;SHT30;51335;51.148;6.950;2022-08-25T03:10:57;18.02;72.78
64858;SHT30;51335;51.148;6.950;2022-08-25T03:11:27;18.01;72.93
64858;SHT30;51335;51.148;6.950;2022-08-25T03:11:58;18.01;72.92
64858;SHT30;51335;51.148;6.950;2022-08-25T03:12:28;17.98;72.99
64858;SHT30;51335;51.148;6.950;2022-08-25T03:12:58;17.95;73.36
64858;SHT30;51335;51.148;6.950;2022-08-25T03:13:29;17.96;73.40
64858;SHT30;51335;51.148;6.950;2022-08-25T03:13:59;17.95;73.40
64858;SHT30;51335;51.148;6.950;2022-08-25T03:14:29;17.96;73.53
64858;SHT30;51335;51.148;6.950;2022-08-25T03:14:59;17.94;73.56
64858;SHT30;51335;51.148;6.950;2022-08-25T03:15:30;17.91;73.69
64858;SHT30;51335;51.148;6.950;2022-08-25T03:16:02;17.91;73.73
64858;SHT30;51335;51.148;6.950;2022-08-25T03:16:33;17.91;73.76
64858;SHT30;51335;51.148;6.950;2022-08-25T03:17:07;17.91;73.78
64858;SHT30;51335;51.148;6.950;2022-08-25T03:17:37;17.89;74.01
64858;SHT30;51335;51.148;6.950;2022-08-25T03:18:08;17.86;74.02
64858;SHT30;51335;51.148;6.950;2022-08-25T03:18:40;17.85;74.16
64858;SHT30;51335;51.148;6.950;2022-08-25T03:19:10;17.86;74.27
64858;SHT30;51335;51.148;6.950;2022-08-25T03:19:41;17.89;74.21
64858;SHT30;51335;51.148;6.950;2022-08-25T03:20:11;17.86;74.06
64858;SHT30;51335;51.148;6.950;2022-08-25T03:20:42;17.88;74.03
64858;SHT30;51335;51.148;6.950;2022-08-25T03:21:13;17.86;74.08
64858;SHT30;51335;51.148;6.950;2022-08-25T03:21:43;17.91;74.20
64858;SHT30;51335;51.148;6.950;2022-08-25T03:22:14;17.96;74.15